Time;durP1;ratioP1;P1;durP2;ratioP2;P2;SDS_P1;SDS_P2;PMS_P1;PMS_P2;Temp;Humidity;BMP_temperature;BMP_pressure;BME280_temperature;BME280_humidity;BME280_pressure;Samples;Min_cycle;Max_cycle;Signal;HPM_P1;HPM_P2
2022/04/03 00:00:18;;;;;;;5.97;3.13;;;0.20;99.90;;;;;;5094593;28;20080;-68
2022/04/03 00:02:45;;;;;;;6.40;3.50;;;0.30;99.90;;;;;;5094187;28;20040;-67
2022/04/03 00:05:12;;;;;;;7.63;3.33;;;0.40;99.90;;;;;;5076223;28;20058;-68
2022/04/03 00:07:39;;;;;;;5.07;3.17;;;0.40;99.90;;;;;;5094473;28;20048;-68
2022/04/03 00:10:07;;;;;;;4.82;3.80;;;0.40;99.90;;;;;;5076343;28;20105;-69
2022/04/03 00:12:35;;;;;;;5.40;3.10;;;0.50;99.90;;;;;;5075647;28;20613;-69
2022/04/03 00:15:02;;;;;;;5.30;2.60;;;0.50;99.90;;;;;;5095025;28;20495;-70
2022/04/03 00:17:29;;;;;;;9.80;2.90;;;0.60;99.90;;;;;;5077100;28;20105;-69
2022/04/03 00:19:56;;;;;;;5.00;3.00;;;0.60;99.90;;;;;;5076498;28;20059;-69
2022/04/03 00:22:24;;;;;;;5.18;2.85;;;0.70;99.90;;;;;;5094783;28;20109;-68
2022/04/03 00:24:51;;;;;;;5.22;2.55;;;0.70;99.90;;;;;;5094153;28;20052;-68
2022/04/03 00:27:18;;;;;;;3.83;2.38;;;0.70;99.90;;;;;;5075416;28;20560;-69
2022/04/03 00:29:47;;;;;;;5.40;3.03;;;0.70;99.90;;;;;;5094532;28;20098;-70
2022/04/03 00:32:13;;;;;;;4.57;2.70;;;0.80;99.90;;;;;;5094010;28;20109;-69
2022/04/03 00:34:40;;;;;;;3.67;2.22;;;0.80;99.90;;;;;;5093569;28;20544;-69
2022/04/03 00:37:07;;;;;;;3.92;2.50;;;0.80;99.90;;;;;;5093748;28;20052;-68
2022/04/03 00:39:34;;;;;;;3.97;2.38;;;0.70;99.90;;;;;;5094046;28;20055;-68
2022/04/03 00:42:01;;;;;;;5.43;3.13;;;0.70;99.90;;;;;;5093173;28;20557;-69
2022/04/03 00:44:29;;;;;;;4.40;2.55;;;0.70;99.90;;;;;;5075779;28;20099;-70
2022/04/03 00:46:58;;;;;;;4.68;2.88;;;0.60;99.90;;;;;;5071653;28;20156;-68
2022/04/03 00:49:25;;;;;;;4.32;2.40;;;0.60;99.90;;;;;;5073438;28;20048;-69
2022/04/03 00:51:52;;;;;;;3.42;2.38;;;0.60;99.90;;;;;;5055447;28;20446;-69
2022/04/03 00:54:19;;;;;;;4.88;2.92;;;0.50;99.90;;;;;;5054941;28;20052;-68
2022/04/03 00:56:46;;;;;;;4.47;3.03;;;0.50;99.90;;;;;;5073738;28;20075;-69
2022/04/03 00:59:13;;;;;;;3.67;2.42;;;0.40;99.90;;;;;;5073719;28;20052;-69
2022/04/03 01:01:41;;;;;;;5.32;2.70;;;0.30;99.90;;;;;;5072877;28;20372;-69
2022/04/03 01:04:09;;;;;;;7.05;3.03;;;0.30;99.90;;;;;;5075422;28;20052;-68
2022/04/03 01:06:36;;;;;;;5.55;3.15;;;0.20;99.90;;;;;;5093554;28;20052;-68
2022/04/03 01:09:04;;;;;;;5.53;3.22;;;0.20;99.90;;;;;;5075001;28;20349;-68
2022/04/03 01:11:32;;;;;;;6.32;3.53;;;0.10;99.90;;;;;;5093205;28;20101;-69
2022/04/03 01:13:59;;;;;;;4.25;3.10;;;0.00;99.90;;;;;;5075390;28;20047;-69
2022/04/03 01:16:26;;;;;;;7.10;3.25;;;0.00;99.90;;;;;;5092789;28;20055;-69
2022/04/03 01:18:52;;;;;;;7.78;3.05;;;0.00;99.90;;;;;;5092893;28;20105;-69
2022/04/03 01:21:21;;;;;;;4.90;3.13;;;-0.10;99.90;;;;;;5093392;28;20102;-68
2022/04/03 01:23:47;;;;;;;5.28;3.00;;;-0.10;99.90;;;;;;5092502;28;20052;-68
2022/04/03 01:26:16;;;;;;;4.30;3.00;;;-0.10;99.90;;;;;;5075139;28;20129;-68
2022/04/03 01:28:43;;;;;;;4.90;2.92;;;-0.20;99.90;;;;;;5092776;28;20058;-68
2022/04/03 01:31:10;;;;;;;6.68;3.55;;;-0.20;99.90;;;;;;5074338;28;20080;-68
2022/04/03 01:33:37;;;;;;;6.50;3.30;;;-0.30;99.90;;;;;;5074905;28;20109;-68
2022/04/03 01:36:04;;;;;;;5.40;3.03;;;-0.30;99.90;;;;;;5074564;28;20095;-68
2022/04/03 01:38:31;;;;;;;5.50;3.30;;;-0.30;99.90;;;;;;5074299;28;20193;-68
2022/04/03 01:40:58;;;;;;;6.38;3.67;;;-0.30;99.90;;;;;;5075329;28;20056;-68
2022/04/03 01:43:26;;;;;;;7.00;4.13;;;-0.30;99.90;;;;;;5070907;28;20052;-68
2022/04/03 01:45:53;;;;;;;5.30;3.70;;;-0.40;99.90;;;;;;5055034;28;20087;-68
2022/04/03 01:48:20;;;;;;;5.78;3.83;;;-0.40;99.90;;;;;;5054649;28;20056;-68
2022/04/03 01:50:48;;;;;;;6.88;3.90;;;-0.30;99.90;;;;;;5053996;28;20101;-68
2022/04/03 01:53:15;;;;;;;5.53;3.47;;;-0.30;99.90;;;;;;5072525;28;20045;-68
2022/04/03 01:55:42;;;;;;;4.53;3.00;;;-0.30;99.90;;;;;;5072598;28;20522;-68
2022/04/03 01:58:09;;;;;;;5.28;3.33;;;-0.20;99.90;;;;;;5054456;28;20130;-68
2022/04/03 02:00:39;;;;;;;5.45;3.63;;;-0.20;99.90;;;;;;5072505;28;20044;-68
2022/04/03 02:03:06;;;;;;;5.28;3.13;;;-0.10;99.90;;;;;;5083098;28;20050;-68
2022/04/03 02:05:33;;;;;;;7.32;3.15;;;0.00;99.90;;;;;;5092071;28;20048;-68
2022/04/03 02:08:00;;;;;;;5.28;3.10;;;0.10;99.90;;;;;;5074673;28;20051;-68
2022/04/03 02:10:27;;;;;;;4.93;2.85;;;0.10;99.90;;;;;;5075083;28;20079;-69
2022/04/03 02:12:54;;;;;;;5.70;3.22;;;0.20;99.90;;;;;;5091845;28;20380;-68
2022/04/03 02:15:20;;;;;;;4.82;2.85;;;0.20;99.90;;;;;;5075005;28;20109;-69
2022/04/03 02:17:49;;;;;;;3.50;2.50;;;0.30;99.90;;;;;;5074474;28;20048;-68
2022/04/03 02:20:15;;;;;;;5.78;3.05;;;0.30;99.90;;;;;;5074071;28;20056;-68
2022/04/03 02:22:42;;;;;;;4.85;3.13;;;0.30;99.90;;;;;;5074112;28;20101;-68
2022/04/03 02:25:11;;;;;;;5.40;3.08;;;0.40;99.90;;;;;;5074302;28;20048;-69
2022/04/03 02:27:38;;;;;;;4.32;2.85;;;0.40;99.90;;;;;;5067795;28;20136;-68
2022/04/03 02:30:08;;;;;;;6.90;3.25;;;0.50;99.90;;;;;;5052892;28;20451;-68
2022/04/03 02:32:37;;;;;;;5.15;3.20;;;0.50;99.90;;;;;;5050417;28;20053;-70
2022/04/03 02:35:07;;;;;;;4.63;3.33;;;0.60;99.90;;;;;;5052301;28;20132;-68
2022/04/03 02:37:34;;;;;;;4.05;3.03;;;0.70;99.90;;;;;;5051461;28;20044;-68
2022/04/03 02:40:04;;;;;;;4.88;3.13;;;0.70;99.90;;;;;;5053729;28;20087;-68
2022/04/03 02:42:31;;;;;;;4.93;2.70;;;0.80;99.90;;;;;;5071056;28;20055;-68
2022/04/03 02:44:58;;;;;;;4.68;2.88;;;0.80;99.90;;;;;;5072200;28;20052;-68
2022/04/03 02:47:25;;;;;;;5.13;3.10;;;0.90;99.90;;;;;;5071814;28;20098;-68
2022/04/03 02:49:52;;;;;;;4.65;2.78;;;1.00;99.90;;;;;;5073446;28;20735;-68
2022/04/03 02:52:21;;;;;;;5.75;3.45;;;1.00;99.90;;;;;;5075027;28;20049;-68
2022/04/03 02:54:48;;;;;;;5.28;2.85;;;1.10;99.90;;;;;;5075418;28;20056;-68
2022/04/03 02:57:16;;;;;;;6.43;3.15;;;1.20;99.90;;;;;;5075863;28;20048;-69
2022/04/03 02:59:44;;;;;;;5.03;3.00;;;1.20;99.90;;;;;;5074272;28;20079;-69
2022/04/03 03:02:11;;;;;;;5.13;2.20;;;1.30;99.90;;;;;;5069873;28;20508;-68
2022/04/03 03:04:39;;;;;;;5.00;2.05;;;1.30;99.90;;;;;;5055374;28;20106;-68
2022/04/03 03:07:07;;;;;;;3.08;1.92;;;1.30;99.90;;;;;;5054314;28;20106;-68
2022/04/03 03:09:35;;;;;;;4.18;2.38;;;1.40;99.90;;;;;;5055664;28;20057;-69
2022/04/03 03:12:03;;;;;;;2.78;1.83;;;1.40;99.90;;;;;;5075157;28;20044;-68
2022/04/03 03:14:30;;;;;;;3.88;1.67;;;1.40;99.90;;;;;;5073925;28;20052;-69
2022/04/03 03:16:57;;;;;;;4.13;1.80;;;1.50;99.90;;;;;;5075339;28;20109;-68
2022/04/03 03:19:24;;;;;;;2.70;1.70;;;1.50;99.90;;;;;;5075194;28;20125;-69
2022/04/03 03:21:51;;;;;;;2.13;1.23;;;1.60;99.90;;;;;;5074531;28;20102;-70
2022/04/03 03:24:18;;;;;;;5.18;1.85;;;1.60;99.90;;;;;;5073788;28;20056;-70
2022/04/03 03:26:46;;;;;;;3.75;1.40;;;1.70;99.90;;;;;;5074194;28;20106;-70
2022/04/03 03:29:13;;;;;;;4.30;1.60;;;1.70;99.90;;;;;;5074891;28;20431;-69
2022/04/03 03:31:40;;;;;;;2.13;1.35;;;1.80;99.90;;;;;;5057389;28;20450;-68
2022/04/03 03:34:07;;;;;;;3.20;1.45;;;1.70;99.90;;;;;;5075047;28;20067;-68
2022/04/03 03:36:33;;;;;;;2.10;1.40;;;1.70;99.90;;;;;;5056827;28;20048;-69
2022/04/03 03:39:00;;;;;;;2.60;1.35;;;1.70;99.90;;;;;;5056945;28;20098;-69
2022/04/03 03:41:27;;;;;;;2.85;1.50;;;1.70;99.90;;;;;;5074998;28;20086;-69
2022/04/03 03:43:55;;;;;;;4.07;1.40;;;1.70;99.90;;;;;;5074089;28;20111;-68
2022/04/03 03:46:23;;;;;;;3.85;1.77;;;1.60;99.90;;;;;;5074883;28;20492;-68
2022/04/03 03:48:49;;;;;;;4.18;1.60;;;1.60;99.90;;;;;;5074663;28;20110;-69
2022/04/03 03:51:16;;;;;;;3.88;2.05;;;1.50;99.90;;;;;;5056052;28;20044;-70
2022/04/03 03:53:43;;;;;;;2.58;1.52;;;1.50;99.90;;;;;;5056442;28;20056;-70
2022/04/03 03:56:10;;;;;;;3.97;1.52;;;1.40;99.90;;;;;;5057334;28;20377;-69
2022/04/03 03:58:37;;;;;;;3.08;1.70;;;1.30;99.90;;;;;;5056205;28;20060;-69
2022/04/03 04:01:05;;;;;;;3.40;1.60;;;1.20;99.90;;;;;;5056562;28;20051;-69
2022/04/03 04:03:32;;;;;;;4.70;2.03;;;1.10;99.90;;;;;;5074037;28;20102;-70
2022/04/03 04:05:59;;;;;;;4.72;2.03;;;1.00;99.90;;;;;;5073878;28;20446;-69
2022/04/03 04:08:26;;;;;;;2.63;1.60;;;1.00;99.90;;;;;;5036992;28;20067;-69
2022/04/03 04:10:53;;;;;;;3.45;2.08;;;0.90;99.90;;;;;;5053874;28;20060;-69
2022/04/03 04:13:20;;;;;;;4.43;2.15;;;0.80;99.90;;;;;;5054459;28;20467;-69
2022/04/03 04:15:47;;;;;;;2.75;1.80;;;0.80;99.90;;;;;;5036714;28;20060;-69
2022/04/03 04:18:15;;;;;;;5.20;2.33;;;0.70;99.90;;;;;;5035922;28;20052;-69
2022/04/03 04:20:42;;;;;;;5.40;2.13;;;0.70;99.90;;;;;;5058399;28;20385;-69
2022/04/03 04:23:10;;;;;;;2.88;2.00;;;0.60;99.90;;;;;;5056610;28;20060;-68
2022/04/03 04:25:36;;;;;;;4.55;2.13;;;0.60;99.90;;;;;;5055418;28;20057;-69
2022/04/03 04:28:05;;;;;;;3.38;2.03;;;0.50;99.90;;;;;;5066662;28;20059;-70
2022/04/03 04:30:32;;;;;;;3.53;2.30;;;0.50;99.90;;;;;;5094258;28;20044;-71
2022/04/03 04:32:59;;;;;;;3.10;1.90;;;0.50;99.90;;;;;;5093607;28;20048;-69
2022/04/03 04:35:27;;;;;;;6.13;2.45;;;0.40;99.90;;;;;;5072435;28;20052;-68
2022/04/03 04:37:54;;;;;;;2.80;2.00;;;0.40;99.90;;;;;;5056147;28;20055;-69
2022/04/03 04:40:21;;;;;;;4.70;2.17;;;0.40;99.90;;;;;;5073014;28;20049;-69
2022/04/03 04:42:49;;;;;;;4.47;2.60;;;0.30;99.90;;;;;;5055978;28;20105;-69
2022/04/03 04:45:17;;;;;;;3.38;2.00;;;0.30;99.90;;;;;;5073708;28;20447;-69
2022/04/03 04:47:44;;;;;;;4.28;2.22;;;0.20;99.90;;;;;;5073155;28;20059;-68
2022/04/03 04:50:14;;;;;;;3.65;1.90;;;0.20;99.90;;;;;;5077893;28;20066;-68
2022/04/03 04:52:43;;;;;;;4.18;2.20;;;0.10;99.90;;;;;;5093897;28;20372;-68
2022/04/03 04:55:11;;;;;;;2.50;1.95;;;0.10;99.90;;;;;;5093064;28;20044;-68
2022/04/03 04:57:39;;;;;;;3.72;2.45;;;0.10;99.90;;;;;;5072140;28;20056;-69
2022/04/03 05:00:08;;;;;;;6.15;2.20;;;0.00;99.90;;;;;;5054949;28;20110;-68
2022/04/03 05:02:35;;;;;;;5.85;2.30;;;0.00;99.90;;;;;;5055700;28;20044;-69
2022/04/03 05:05:04;;;;;;;3.63;2.25;;;-0.10;99.90;;;;;;5055200;28;20048;-68
2022/04/03 05:07:31;;;;;;;5.32;2.00;;;-0.10;99.90;;;;;;5072428;28;20090;-69
2022/04/03 05:10:00;;;;;;;6.35;2.58;;;-0.10;99.90;;;;;;5055141;28;20094;-68
2022/04/03 05:12:26;;;;;;;6.30;2.38;;;-0.10;99.90;;;;;;5092861;28;20553;-68
2022/04/03 05:14:53;;;;;;;4.00;2.92;;;-0.20;99.90;;;;;;5093063;28;20056;-68
2022/04/03 05:17:20;;;;;;;5.50;2.22;;;-0.20;99.90;;;;;;5075139;28;20048;-69
2022/04/03 05:19:47;;;;;;;4.05;2.70;;;-0.20;99.90;;;;;;5071533;28;20106;-67
2022/04/03 05:22:14;;;;;;;3.83;2.50;;;-0.20;99.90;;;;;;5054618;28;20102;-68
2022/04/03 05:24:41;;;;;;;8.32;3.00;;;-0.10;99.90;;;;;;5072845;28;20060;-68
2022/04/03 05:27:09;;;;;;;4.57;2.67;;;-0.10;99.90;;;;;;5073020;28;20064;-68
2022/04/03 05:29:36;;;;;;;5.20;2.70;;;-0.10;99.90;;;;;;5072552;28;20106;-68
2022/04/03 05:32:03;;;;;;;8.70;2.58;;;-0.10;99.90;;;;;;5073007;28;20175;-68
2022/04/03 05:34:30;;;;;;;4.53;2.70;;;0.00;99.90;;;;;;5072367;28;20450;-69
2022/04/03 05:36:57;;;;;;;6.38;3.00;;;0.10;99.90;;;;;;5074285;28;20101;-69
2022/04/03 05:39:24;;;;;;;5.80;2.85;;;0.20;99.90;;;;;;5074800;28;20101;-69
2022/04/03 05:41:54;;;;;;;3.25;2.30;;;0.20;99.90;;;;;;5075185;28;20091;-70
2022/04/03 05:44:22;;;;;;;3.85;2.80;;;0.30;99.90;;;;;;5092504;28;20047;-70
2022/04/03 05:46:50;;;;;;;3.35;2.55;;;0.40;99.90;;;;;;5092829;28;20334;-71
2022/04/03 05:49:17;;;;;;;6.03;2.38;;;0.40;99.90;;;;;;5092111;28;20466;-70
2022/04/03 05:51:44;;;;;;;7.10;3.28;;;0.40;99.90;;;;;;5092601;28;20077;-71
2022/04/03 05:54:11;;;;;;;7.68;3.92;;;0.40;99.90;;;;;;5092988;28;20141;-70
2022/04/03 05:56:38;;;;;;;3.75;2.67;;;0.50;99.90;;;;;;5074161;28;20052;-68
2022/04/03 05:59:05;;;;;;;3.35;2.38;;;0.50;99.90;;;;;;5075079;28;20044;-70
2022/04/03 06:01:33;;;;;;;5.80;2.63;;;0.50;99.90;;;;;;5075153;28;20450;-70
2022/04/03 06:04:00;;;;;;;5.50;3.03;;;0.60;99.90;;;;;;5091809;28;20463;-70
2022/04/03 06:06:27;;;;;;;5.13;2.60;;;0.70;99.90;;;;;;5093113;28;20070;-70
2022/04/03 06:08:54;;;;;;;4.57;3.00;;;0.90;99.90;;;;;;5075096;28;20541;-70
2022/04/03 06:11:21;;;;;;;4.90;2.55;;;1.10;99.90;;;;;;5092267;28;20189;-69
2022/04/03 06:13:47;;;;;;;4.18;2.47;;;1.30;99.90;;;;;;5075151;28;20056;-68
2022/04/03 06:16:15;;;;;;;4.43;2.60;;;1.40;99.90;;;;;;5092396;28;20052;-69
2022/04/03 06:18:43;;;;;;;4.60;2.28;;;1.50;99.90;;;;;;5074199;28;20066;-68
2022/04/03 06:21:10;;;;;;;5.78;2.40;;;1.60;99.90;;;;;;5075052;28;20052;-68
2022/04/03 06:23:37;;;;;;;5.10;2.55;;;1.70;99.90;;;;;;5074516;28;20097;-68
2022/04/03 06:26:04;;;;;;;3.45;2.30;;;1.80;99.90;;;;;;5094874;28;20056;-67
2022/04/03 06:28:31;;;;;;;4.47;2.47;;;2.00;99.90;;;;;;5096718;28;20056;-70
2022/04/03 06:30:58;;;;;;;7.25;2.38;;;2.50;99.90;;;;;;5096215;28;20052;-68
2022/04/03 06:33:25;;;;;;;4.28;2.53;;;2.90;99.90;;;;;;5077627;28;20564;-69
2022/04/03 06:35:54;;;;;;;7.30;2.28;;;3.00;99.90;;;;;;5078628;28;20055;-70
2022/04/03 06:38:21;;;;;;;8.35;2.50;;;3.00;99.90;;;;;;5078713;28;20056;-71
2022/04/03 06:40:50;;;;;;;3.67;1.90;;;3.40;99.90;;;;;;5078139;28;20052;-67
2022/04/03 06:43:18;;;;;;;4.07;1.92;;;4.60;99.90;;;;;;5097433;28;20048;-69
2022/04/03 06:45:45;;;;;;;5.30;1.95;;;5.80;99.90;;;;;;5096506;28;20048;-69
2022/04/03 06:48:12;;;;;;;5.95;2.20;;;7.00;99.90;;;;;;5097576;28;20044;-70
2022/04/03 06:50:39;;;;;;;3.10;1.60;;;8.00;99.90;;;;;;5096338;28;20055;-69
2022/04/03 06:53:08;;;;;;;4.78;1.45;;;8.70;99.90;;;;;;5077886;28;20090;-69
2022/04/03 06:55:35;;;;;;;3.25;1.75;;;9.10;99.90;;;;;;5078352;28;20051;-70
2022/04/03 06:58:04;;;;;;;5.00;1.80;;;9.60;99.90;;;;;;5071415;28;20052;-77
2022/04/03 07:00:32;;;;;;;2.40;1.35;;;10.00;99.90;;;;;;5074004;28;20048;-72
2022/04/03 07:02:59;;;;;;;3.72;1.40;;;10.10;99.90;;;;;;5074772;28;20052;-70
2022/04/03 07:05:26;;;;;;;2.90;1.15;;;9.80;99.90;;;;;;5088774;28;20049;-71
2022/04/03 07:07:53;;;;;;;3.97;1.30;;;9.50;99.90;;;;;;5070188;28;20105;-71
2022/04/03 07:10:21;;;;;;;2.90;1.40;;;9.50;99.90;;;;;;5087704;28;20098;-69
2022/04/03 07:12:48;;;;;;;4.68;1.50;;;9.70;99.90;;;;;;5070148;28;20048;-68
2022/04/03 07:15:15;;;;;;;5.80;1.75;;;10.10;99.90;;;;;;5069299;28;20488;-69
2022/04/03 07:17:43;;;;;;;3.10;1.20;;;10.50;99.90;;;;;;5090791;28;20040;-70
2022/04/03 07:20:13;;;;;;;3.92;1.40;;;10.40;99.90;;;;;;5087949;28;20109;-69
2022/04/03 07:22:40;;;;;;;5.87;1.60;;;9.90;99.90;;;;;;5067540;28;20079;-69
2022/04/03 07:25:08;;;;;;;3.80;1.23;;;9.80;99.90;;;;;;5087791;28;20059;-69
2022/04/03 07:27:36;;;;;;;6.97;1.50;;;9.60;99.90;;;;;;5091414;28;20060;-69
2022/04/03 07:30:04;;;;;;;2.72;1.08;;;10.10;99.90;;;;;;5070595;28;20110;-70
2022/04/03 07:32:31;;;;;;;2.47;1.17;;;10.70;99.90;;;;;;5068359;28;20037;-70
2022/04/03 07:34:58;;;;;;;1.80;1.08;;;11.40;99.90;;;;;;5069412;28;20092;-69
2022/04/03 07:37:25;;;;;;;3.15;0.80;;;11.80;99.90;;;;;;5068486;28;20044;-69
2022/04/03 07:39:52;;;;;;;3.58;1.10;;;12.70;99.90;;;;;;5067180;28;20063;-70
2022/04/03 07:42:19;;;;;;;3.95;0.90;;;13.30;99.90;;;;;;5066688;28;20051;-70
2022/04/03 07:44:47;;;;;;;1.80;1.00;;;13.80;99.90;;;;;;5071976;28;20043;-69
2022/04/03 07:47:14;;;;;;;1.98;0.80;;;14.30;98.90;;;;;;5069063;28;20131;-71
2022/04/03 07:49:41;;;;;;;11.23;1.98;;;14.80;98.40;;;;;;5088822;28;20435;-71
2022/04/03 07:52:08;;;;;;;1.70;0.60;;;15.20;96.70;;;;;;5069643;28;20052;-71
2022/04/03 07:54:38;;;;;;;2.78;1.00;;;15.70;95.30;;;;;;5067234;28;20040;-71
2022/04/03 07:57:06;;;;;;;1.83;0.80;;;15.90;91.60;;;;;;5068113;28;20066;-71
2022/04/03 07:59:33;;;;;;;2.28;0.80;;;15.50;94.20;;;;;;5068309;28;20044;-71
2022/04/03 08:02:02;;;;;;;2.97;0.82;;;15.80;93.90;;;;;;5068949;28;20115;-71
2022/04/03 08:04:29;;;;;;;2.33;0.93;;;15.80;93.40;;;;;;5089833;28;20059;-71
2022/04/03 08:06:56;;;;;;;3.63;0.88;;;16.00;93.40;;;;;;5088281;28;20053;-71
2022/04/03 08:09:23;;;;;;;3.65;1.08;;;16.30;92.80;;;;;;5086141;28;20148;-71
2022/04/03 08:11:50;;;;;;;6.53;0.80;;;16.40;91.80;;;;;;5087735;28;20095;-72
2022/04/03 08:14:18;;;;;;;2.35;0.80;;;16.90;92.00;;;;;;5090625;28;20036;-72
2022/04/03 08:16:45;;;;;;;2.42;0.90;;;16.70;91.40;;;;;;5068482;28;20127;-71
2022/04/03 08:19:14;;;;;;;3.05;0.77;;;16.70;90.40;;;;;;5088500;28;20508;-70
2022/04/03 08:21:41;;;;;;;2.03;1.00;;;16.90;86.90;;;;;;5087562;28;20048;-71
2022/04/03 08:24:08;;;;;;;4.63;1.05;;;17.20;90.20;;;;;;5066991;28;20040;-71
2022/04/03 08:26:35;;;;;;;4.68;1.00;;;16.70;87.70;;;;;;5085703;28;20492;-71
2022/04/03 08:29:02;;;;;;;4.15;1.30;;;16.80;88.10;;;;;;5092554;28;20056;-71
2022/04/03 08:31:29;;;;;;;2.78;1.00;;;17.10;88.60;;;;;;5086897;28;20055;-70
2022/04/03 08:33:57;;;;;;;2.58;1.08;;;17.50;87.50;;;;;;5084911;28;20547;-72
2022/04/03 08:36:26;;;;;;;4.00;0.90;;;17.00;84.30;;;;;;5067221;28;20465;-70
2022/04/03 08:38:53;;;;;;;2.97;1.00;;;17.30;84.20;;;;;;5066001;28;20056;-71
2022/04/03 08:41:20;;;;;;;2.10;0.80;;;17.40;84.10;;;;;;5067392;28;20454;-71
2022/04/03 08:43:47;;;;;;;1.73;0.80;;;17.40;83.00;;;;;;5083583;28;20488;-70
2022/04/03 08:46:14;;;;;;;3.25;0.85;;;18.00;83.30;;;;;;5087620;28;20135;-70
2022/04/03 08:48:46;;;;;;;2.97;0.90;;;18.00;82.20;;;;;;5067395;28;20086;-71
2022/04/03 08:51:13;;;;;;;2.88;0.90;;;17.00;80.00;;;;;;5089631;28;20079;-70
2022/04/03 08:53:44;;;;;;;2.20;0.70;;;15.80;81.00;;;;;;5087350;28;20437;-70
2022/04/03 08:56:11;;;;;;;4.97;1.15;;;14.30;82.60;;;;;;5088741;28;20488;-70
2022/04/03 08:58:38;;;;;;;4.35;0.70;;;13.90;86.00;;;;;;5088785;28;20056;-70
2022/04/03 09:01:05;;;;;;;3.53;0.90;;;13.70;85.40;;;;;;5069726;28;20470;-70
2022/04/03 09:03:31;;;;;;;2.08;0.70;;;14.70;85.70;;;;;;5067796;28;20048;-70
2022/04/03 09:06:13;;;;;;;2.38;0.77;;;15.00;83.90;;;;;;5066967;28;20147;-70
2022/04/03 09:08:42;;;;;;;2.97;1.05;;;15.90;82.00;;;;;;5089324;28;20050;-70
2022/04/03 09:11:09;;;;;;;3.97;1.02;;;16.30;79.00;;;;;;5069411;28;20052;-70
2022/04/03 09:13:37;;;;;;;2.78;0.80;;;16.40;79.70;;;;;;5084565;28;20055;-70
2022/04/03 09:16:05;;;;;;;2.05;0.70;;;16.10;80.10;;;;;;5066967;28;20044;-70
2022/04/03 09:18:48;;;;;;;3.92;1.10;;;16.00;81.00;;;;;;5082376;28;20423;-71
2022/04/03 09:21:20;;;;;;;2.17;0.73;;;16.70;79.20;;;;;;5064802;28;20047;-70
2022/04/03 09:24:15;;;;;;;1.67;0.68;;;17.10;79.00;;;;;;5083450;28;20049;-70
2022/04/03 09:26:43;;;;;;;2.78;0.68;;;17.40;75.10;;;;;;5016944;28;20373;-70
2022/04/03 09:29:13;;;;;;;2.42;0.82;;;17.50;77.30;;;;;;5088417;28;20496;-70
2022/04/03 09:31:41;;;;;;;1.95;0.90;;;17.00;76.80;;;;;;5064485;28;20086;-70
2022/04/03 09:34:10;;;;;;;3.85;1.00;;;15.80;77.10;;;;;;5082722;28;20089;-70
2022/04/03 09:36:38;;;;;;;2.78;0.82;;;15.00;78.40;;;;;;5065598;28;20067;-69
2022/04/03 09:39:07;;;;;;;13.65;1.42;;;15.80;79.80;;;;;;5085520;28;20053;-70
2022/04/03 09:41:57;;;;;;;2.13;0.75;;;15.90;78.50;;;;;;5066618;28;20060;-71
2022/04/03 09:44:29;;;;;;;2.45;0.63;;;15.50;79.40;;;;;;5066941;28;20071;-71
2022/04/03 09:47:20;;;;;;;3.60;0.77;;;14.10;80.00;;;;;;5064788;28;20063;-70
2022/04/03 09:49:53;;;;;;;1.60;0.70;;;13.90;81.90;;;;;;5066772;28;20052;-69
2022/04/03 09:52:39;;;;;;;2.08;0.63;;;14.70;80.40;;;;;;5081085;28;20040;-70
2022/04/03 09:55:21;;;;;;;1.10;0.57;;;14.80;77.00;;;;;;5089501;28;20047;-69
2022/04/03 09:57:51;;;;;;;4.13;0.80;;;14.10;76.80;;;;;;5089217;28;20044;-70
2022/04/03 10:00:29;;;;;;;1.08;0.50;;;13.50;79.60;;;;;;5089095;28;20081;-70
2022/04/03 10:03:00;;;;;;;2.33;0.88;;;12.90;81.50;;;;;;5085145;28;20051;-69
2022/04/03 10:05:30;;;;;;;5.22;1.35;;;12.60;82.30;;;;;;5061775;28;20418;-69
2022/04/03 10:08:00;;;;;;;3.70;1.02;;;12.30;83.50;;;;;;5060652;28;20106;-70
2022/04/03 10:10:27;;;;;;;2.80;0.98;;;12.10;85.00;;;;;;5079983;28;20496;-69
2022/04/03 10:12:56;;;;;;;1.75;0.82;;;12.00;85.10;;;;;;5083652;28;20460;-69
2022/04/03 10:15:23;;;;;;;1.92;0.88;;;12.80;86.00;;;;;;5065828;28;20052;-69
2022/04/03 10:17:50;;;;;;;2.38;0.70;;;14.30;82.90;;;;;;5084488;28;20048;-70
2022/04/03 10:20:17;;;;;;;4.38;0.85;;;15.70;80.60;;;;;;5064881;28;20109;-71
2022/04/03 10:22:48;;;;;;;3.03;0.80;;;17.20;79.10;;;;;;5072693;28;20083;-72
2022/04/03 10:25:28;;;;;;;4.03;1.17;;;17.90;72.20;;;;;;5062613;28;20117;-72
2022/04/03 10:27:59;;;;;;;1.90;0.70;;;17.70;70.80;;;;;;5088485;28;20120;-71
2022/04/03 10:30:35;;;;;;;2.50;1.08;;;16.90;72.90;;;;;;5084481;28;20048;-72
2022/04/03 10:33:02;;;;;;;1.73;0.70;;;17.70;72.70;;;;;;5065766;28;20047;-71
2022/04/03 10:35:29;;;;;;;2.28;0.80;;;18.30;72.70;;;;;;5061882;28;20052;-72
2022/04/03 10:38:03;;;;;;;9.75;1.25;;;18.40;71.70;;;;;;5070367;28;20059;-72
2022/04/03 10:40:33;;;;;;;2.38;0.80;;;17.30;70.30;;;;;;5053726;28;20076;-70
2022/04/03 10:43:02;;;;;;;3.20;1.03;;;16.40;72.30;;;;;;5076787;28;20060;-71
2022/04/03 10:45:32;;;;;;;3.35;0.90;;;15.30;73.20;;;;;;5072302;28;20060;-70
2022/04/03 10:48:25;;;;;;;1.55;0.63;;;15.00;74.30;;;;;;5070406;28;20072;-71
2022/04/03 10:51:09;;;;;;;2.45;0.73;;;15.10;72.60;;;;;;5070674;28;20101;-71
2022/04/03 10:53:38;;;;;;;2.58;1.00;;;14.30;74.20;;;;;;5051532;28;20040;-71
2022/04/03 10:56:10;;;;;;;2.35;0.88;;;13.70;76.80;;;;;;5070582;28;20139;-71
2022/04/03 10:58:46;;;;;;;2.33;0.80;;;12.70;81.70;;;;;;5053243;28;20132;-70
2022/04/03 11:01:24;;;;;;;3.30;1.10;;;12.40;84.70;;;;;;5065220;28;20045;-71
2022/04/03 11:03:59;;;;;;;4.63;1.23;;;11.80;87.50;;;;;;5073170;28;20060;-70
2022/04/03 11:06:31;;;;;;;2.92;1.00;;;11.40;90.20;;;;;;5087736;28;20064;-70
2022/04/03 11:09:12;;;;;;;2.40;0.93;;;11.20;90.90;;;;;;5070436;28;20419;-70
2022/04/03 11:11:59;;;;;;;3.47;1.10;;;10.90;91.10;;;;;;5071944;28;20052;-70
2022/04/03 11:14:52;;;;;;;3.38;1.20;;;11.00;91.70;;;;;;5054965;28;20535;-70
2022/04/03 11:17:19;;;;;;;2.78;0.98;;;10.90;91.60;;;;;;5076927;28;20049;-70
2022/04/03 11:19:47;;;;;;;2.30;1.20;;;10.90;91.60;;;;;;5055500;28;20112;-70
2022/04/03 11:22:16;;;;;;;3.72;1.50;;;11.10;91.70;;;;;;5055443;28;20048;-70
2022/04/03 11:24:43;;;;;;;3.50;1.10;;;11.20;91.50;;;;;;5086579;28;20044;-69
2022/04/03 11:27:12;;;;;;;4.60;1.30;;;11.20;91.10;;;;;;5061289;28;20064;-71
2022/04/03 11:29:39;;;;;;;3.95;1.38;;;11.10;91.30;;;;;;5057821;28;20063;-70
2022/04/03 11:32:09;;;;;;;2.33;1.10;;;10.70;91.60;;;;;;5072863;28;20061;-70
2022/04/03 11:34:37;;;;;;;3.35;1.23;;;10.90;91.50;;;;;;5073482;28;20094;-71
2022/04/03 11:37:08;;;;;;;3.40;1.00;;;12.10;90.60;;;;;;5073415;28;20053;-71
2022/04/03 11:39:37;;;;;;;2.30;0.70;;;13.70;89.10;;;;;;5071557;28;20472;-71
2022/04/03 11:42:06;;;;;;;2.38;0.90;;;13.90;86.10;;;;;;5093227;28;20555;-71
2022/04/03 11:44:34;;;;;;;2.13;0.90;;;13.70;85.30;;;;;;5059569;28;20051;-71
2022/04/03 11:47:01;;;;;;;2.75;0.70;;;13.00;84.60;;;;;;5091684;28;20052;-71
2022/04/03 11:49:31;;;;;;;1.73;0.50;;;11.80;83.60;;;;;;5055056;28;20636;-71
2022/04/03 11:52:06;;;;;;;1.93;0.60;;;11.00;82.70;;;;;;5055934;28;20109;-70
2022/04/03 11:54:34;;;;;;;3.30;0.90;;;10.40;85.40;;;;;;5062060;28;20302;-71
2022/04/03 11:57:02;;;;;;;1.65;0.80;;;9.90;88.10;;;;;;5094092;28;20435;-71
2022/04/03 11:59:30;;;;;;;1.15;0.60;;;9.50;89.70;;;;;;5071239;28;20057;-70
2022/04/03 12:01:57;;;;;;;1.30;0.60;;;9.60;90.00;;;;;;5077436;28;20121;-71
2022/04/03 12:04:24;;;;;;;3.67;0.80;;;10.70;90.10;;;;;;5078833;28;20105;-71
2022/04/03 12:06:59;;;;;;;2.15;0.75;;;12.40;88.20;;;;;;5072831;28;20056;-72
2022/04/03 12:09:27;;;;;;;2.67;1.08;;;13.60;85.10;;;;;;5087343;28;20423;-72
2022/04/03 12:11:56;;;;;;;3.88;0.60;;;15.10;83.10;;;;;;5061931;28;20052;-72
2022/04/03 12:14:25;;;;;;;1.30;0.70;;;15.40;79.50;;;;;;5088406;28;20048;-71
2022/04/03 12:16:59;;;;;;;2.50;0.60;;;16.20;79.70;;;;;;5062439;28;20048;-72
2022/04/03 12:19:26;;;;;;;3.13;0.70;;;16.50;77.10;;;;;;5072228;28;20127;-72
2022/04/03 12:21:56;;;;;;;2.15;0.60;;;17.10;76.50;;;;;;5077208;28;20549;-72
2022/04/03 12:24:24;;;;;;;1.58;0.70;;;17.10;75.90;;;;;;5057562;28;20045;-71
2022/04/03 12:26:54;;;;;;;1.30;0.70;;;17.70;73.10;;;;;;5078926;28;20491;-71
2022/04/03 12:29:23;;;;;;;2.55;0.80;;;17.70;75.00;;;;;;5063386;28;20118;-72
2022/04/03 12:32:01;;;;;;;2.25;0.80;;;16.60;74.30;;;;;;5071547;28;20524;-72
2022/04/03 12:34:29;;;;;;;2.58;0.75;;;15.50;74.50;;;;;;5078499;28;20100;-73
2022/04/03 12:36:59;;;;;;;4.13;1.20;;;13.70;78.10;;;;;;5066004;28;20144;-73
2022/04/03 12:39:41;;;;;;;2.28;0.75;;;13.10;79.70;;;;;;5095063;28;20061;-71
2022/04/03 12:42:23;;;;;;;1.65;0.60;;;12.30;82.50;;;;;;5091541;28;20071;-71
2022/04/03 12:44:56;;;;;;;4.13;1.15;;;11.70;83.70;;;;;;5084928;28;20109;-72
2022/04/03 12:47:24;;;;;;;1.55;0.88;;;12.10;84.90;;;;;;5073944;28;20101;-71
2022/04/03 12:50:10;;;;;;;5.63;1.10;;;12.50;84.70;;;;;;5055430;28;20060;-72
2022/04/03 12:52:40;;;;;;;1.73;0.80;;;12.30;84.40;;;;;;5061332;28;20153;-73
2022/04/03 12:55:09;;;;;;;2.88;1.05;;;12.00;86.20;;;;;;5076273;28;20607;-71
2022/04/03 13:00:20;;;;;;;4.93;1.20;;;11.30;89.70;;;;;;5070171;28;20088;-73